createdAt,value
2018-04-23T00:00:31.058Z,15.70
2018-04-23T00:02:58.989Z,15.70
2018-04-23T00:05:26.638Z,15.70
2018-04-23T00:07:54.255Z,15.60
2018-04-23T00:10:22.155Z,15.70
2018-04-23T00:12:49.873Z,15.90
2018-04-23T00:15:18.505Z,16.00
2018-04-23T00:17:46.121Z,16.00
2018-04-23T00:20:13.792Z,16.20
2018-04-23T00:22:41.413Z,16.40
2018-04-23T00:25:09.081Z,16.60
2018-04-23T00:27:36.735Z,16.50
2018-04-23T00:30:04.398Z,16.60
2018-04-23T00:32:32.058Z,16.70
2018-04-23T00:34:59.765Z,16.60
2018-04-23T00:37:27.406Z,16.40
2018-04-23T00:39:55.079Z,16.40
2018-04-23T00:42:23.501Z,16.30
2018-04-23T00:44:51.720Z,16.30
2018-04-23T00:47:19.901Z,16.30
2018-04-23T00:49:47.898Z,16.30
2018-04-23T00:52:15.594Z,16.20
2018-04-23T00:54:43.674Z,16.10
2018-04-23T00:57:12.119Z,16.00
2018-04-23T00:59:39.790Z,16.00
2018-04-23T01:02:07.431Z,15.80
2018-04-23T01:04:35.155Z,15.70
2018-04-23T01:07:02.833Z,15.70
2018-04-23T01:09:31.235Z,15.70
2018-04-23T01:11:59.688Z,15.60
2018-04-23T01:14:27.367Z,15.50
2018-04-23T01:16:56.669Z,15.60
2018-04-23T01:19:24.349Z,15.60
2018-04-23T01:21:51.987Z,15.60
2018-04-23T01:24:19.864Z,15.50
2018-04-23T01:26:47.499Z,15.40
2018-04-23T01:29:15.209Z,15.40
2018-04-23T01:31:42.848Z,15.30
2018-04-23T01:34:10.519Z,15.40
2018-04-23T01:36:38.164Z,15.30
2018-04-23T01:39:06.720Z,15.30
2018-04-23T01:41:35.966Z,15.30
2018-04-23T01:44:03.616Z,15.30
2018-04-23T01:46:31.272Z,15.30
2018-04-23T01:48:59.937Z,15.20
2018-04-23T01:51:27.613Z,15.10
2018-04-23T01:53:56.371Z,15.10
2018-04-23T01:56:23.969Z,15.10
2018-04-23T01:58:52.375Z,15.00
2018-04-23T02:01:20.807Z,14.90
2018-04-23T02:03:48.454Z,14.90
2018-04-23T02:06:16.110Z,14.90
2018-04-23T02:08:43.772Z,14.80
2018-04-23T02:11:11.389Z,14.80
2018-04-23T02:13:39.019Z,14.80
2018-04-23T02:16:06.684Z,14.80
2018-04-23T02:18:34.332Z,14.90
2018-04-23T02:21:01.987Z,14.80
2018-04-23T02:23:29.604Z,14.80
2018-04-23T02:25:57.539Z,14.80
2018-04-23T02:28:25.162Z,14.80
2018-04-23T02:30:52.765Z,14.80
2018-04-23T02:33:20.417Z,14.80
2018-04-23T02:35:48.821Z,14.90
2018-04-23T02:38:16.471Z,14.80
2018-04-23T02:40:44.134Z,14.80
2018-04-23T02:43:12.566Z,14.70
2018-04-23T02:45:40.719Z,14.70
2018-04-23T02:48:08.376Z,14.70
2018-04-23T02:50:36.779Z,14.40
2018-04-23T02:53:04.442Z,14.40
2018-04-23T02:55:32.105Z,14.40
2018-04-23T02:57:59.745Z,14.30
2018-04-23T03:00:27.393Z,14.20
2018-04-23T03:02:55.499Z,14.30
2018-04-23T03:05:23.904Z,14.10
2018-04-23T03:07:52.304Z,14.10
2018-04-23T03:10:19.962Z,14.20
2018-04-23T03:12:47.624Z,14.00
2018-04-23T03:15:15.274Z,13.90
2018-04-23T03:17:42.905Z,13.90
2018-04-23T03:20:10.588Z,13.90
2018-04-23T03:22:38.259Z,13.80
2018-04-23T03:25:06.659Z,13.70
2018-04-23T03:27:34.751Z,13.70
2018-04-23T03:30:02.408Z,13.60
2018-04-23T03:32:30.005Z,13.60
2018-04-23T03:34:57.683Z,13.70
2018-04-23T03:37:25.324Z,13.60
2018-04-23T03:39:52.938Z,13.60
2018-04-23T03:42:21.374Z,13.50
2018-04-23T03:44:49.620Z,13.50
2018-04-23T03:47:18.020Z,13.30
2018-04-23T03:49:45.905Z,13.30
2018-04-23T03:52:13.518Z,13.30
2018-04-23T03:54:41.162Z,13.30
2018-04-23T03:57:08.929Z,13.40
2018-04-23T03:59:36.536Z,13.40
2018-04-23T04:02:04.167Z,13.30
2018-04-23T04:04:31.891Z,13.10
2018-04-23T04:06:59.548Z,13.10
2018-04-23T04:09:27.178Z,13.10
2018-04-23T04:11:54.859Z,13.10
2018-04-23T04:17:48.967Z,13.00
2018-04-23T04:20:17.347Z,13.00
2018-04-23T04:22:45.005Z,13.00
2018-04-23T04:25:12.627Z,13.00
2018-04-23T04:27:40.248Z,13.00
2018-04-23T04:30:07.903Z,13.00
2018-04-23T04:32:36.697Z,13.10
2018-04-23T04:35:04.353Z,13.10
2018-04-23T04:37:32.798Z,13.20
2018-04-23T04:40:00.478Z,13.20
2018-04-23T04:42:28.099Z,13.20
2018-04-23T04:44:55.714Z,13.40
2018-04-23T04:47:24.215Z,13.60
2018-04-23T04:49:52.667Z,13.90
2018-04-23T04:52:21.153Z,13.90
2018-04-23T04:54:49.121Z,14.00
2018-04-23T04:57:18.338Z,14.10
2018-04-23T04:59:45.970Z,14.10
2018-04-23T05:02:13.634Z,14.40
2018-04-23T05:04:42.306Z,14.40
2018-04-23T05:07:11.227Z,14.50
2018-04-23T05:09:38.874Z,14.50
2018-04-23T05:12:07.325Z,14.70
2018-04-23T05:14:36.118Z,14.60
2018-04-23T05:17:03.781Z,14.70
2018-04-23T05:19:31.470Z,14.70
2018-04-23T05:21:59.145Z,14.90
2018-04-23T05:24:27.587Z,15.00
2018-04-23T05:26:55.251Z,15.00
2018-04-23T05:29:22.929Z,15.10
2018-04-23T05:31:50.588Z,15.20
2018-04-23T05:34:18.225Z,15.30
2018-04-23T05:36:45.892Z,15.50
2018-04-23T05:39:13.514Z,15.50
2018-04-23T05:41:41.256Z,15.60
2018-04-23T05:44:08.946Z,15.60
2018-04-23T05:46:37.307Z,15.90
2018-04-23T05:49:04.987Z,15.90
2018-04-23T05:51:32.914Z,16.10
2018-04-23T05:54:00.564Z,16.30
2018-04-23T05:56:28.985Z,16.50
2018-04-23T05:58:56.725Z,16.50
2018-04-23T06:01:24.370Z,16.70
2018-04-23T06:03:52.065Z,16.70
2018-04-23T06:06:20.082Z,16.80
2018-04-23T06:08:48.045Z,16.80
2018-04-23T06:11:15.759Z,16.80
2018-04-23T06:13:44.217Z,17.00
2018-04-23T06:16:11.907Z,17.10
2018-04-23T06:18:40.369Z,17.60
2018-04-23T06:21:08.859Z,17.80
2018-04-23T06:23:36.932Z,17.80
2018-04-23T06:26:04.588Z,18.00
2018-04-23T06:28:32.236Z,18.00
2018-04-23T06:30:59.910Z,17.90
2018-04-23T06:33:27.551Z,17.90
2018-04-23T06:35:55.233Z,17.90
2018-04-23T06:38:24.229Z,17.90
2018-04-23T06:40:52.101Z,17.90
2018-04-23T06:43:19.725Z,17.90
2018-04-23T06:45:48.448Z,18.00
2018-04-23T06:48:16.910Z,18.00
2018-04-23T06:50:45.306Z,18.00
2018-04-23T06:53:13.621Z,18.00
2018-04-23T06:55:41.276Z,18.00
2018-04-23T06:58:08.942Z,18.00
2018-04-23T07:00:38.210Z,18.00
2018-04-23T07:03:06.683Z,18.00
2018-04-23T07:05:35.137Z,18.10
2018-04-23T07:08:02.828Z,18.00
2018-04-23T07:10:31.051Z,18.10
2018-04-23T07:12:58.727Z,18.10
2018-04-23T07:15:26.542Z,18.20
2018-04-23T07:17:54.189Z,18.20
2018-04-23T07:20:21.860Z,18.20
2018-04-23T07:22:49.920Z,18.20
2018-04-23T07:25:17.556Z,18.30
2018-04-23T07:27:46.374Z,18.20
2018-04-23T07:30:14.054Z,18.20
2018-04-23T07:32:41.716Z,18.20
2018-04-23T07:35:09.366Z,18.20
2018-04-23T07:37:37.365Z,18.30
2018-04-23T07:40:05.056Z,18.30
2018-04-23T07:42:32.720Z,18.40
2018-04-23T07:45:00.323Z,18.60
2018-04-23T07:47:29.424Z,18.70
2018-04-23T07:49:58.515Z,19.00
2018-04-23T07:52:27.376Z,19.40
2018-04-23T07:54:55.072Z,19.40
2018-04-23T07:57:23.802Z,20.30
2018-04-23T07:59:51.426Z,20.30
2018-04-23T08:02:20.421Z,20.60
2018-04-23T08:04:48.333Z,20.60
2018-04-23T08:07:15.983Z,20.80
2018-04-23T08:09:43.975Z,20.60
2018-04-23T08:12:11.702Z,21.00
2018-04-23T08:14:39.379Z,21.20
2018-04-23T08:17:07.811Z,21.40
2018-04-23T08:19:35.472Z,21.30
2018-04-23T08:22:04.106Z,21.80
2018-04-23T08:24:32.614Z,22.30
2018-04-23T08:27:01.071Z,22.30
2018-04-23T08:29:28.692Z,22.20
2018-04-23T08:31:57.096Z,22.40
2018-04-23T08:34:25.111Z,22.90
2018-04-23T08:36:53.509Z,23.80
2018-04-23T08:39:21.163Z,23.80
2018-04-23T08:41:50.137Z,23.80
2018-04-23T08:44:18.950Z,23.80
2018-04-23T08:46:47.396Z,22.80
2018-04-23T08:49:15.337Z,22.70
2018-04-23T08:51:43.009Z,22.70
2018-04-23T08:54:10.697Z,23.00
2018-04-23T08:56:38.966Z,23.20
2018-04-23T08:59:06.638Z,23.40
2018-04-23T09:01:34.344Z,23.30
2018-04-23T09:04:02.314Z,23.30
2018-04-23T09:06:29.930Z,23.40
2018-04-23T09:08:58.355Z,23.80
2018-04-23T09:11:26.012Z,23.80
2018-04-23T09:13:53.911Z,23.10
2018-04-23T09:16:22.322Z,22.30
2018-04-23T09:18:50.016Z,22.30
2018-04-23T09:21:19.205Z,22.20
2018-04-23T09:23:46.842Z,22.20
2018-04-23T09:26:14.514Z,22.30
2018-04-23T09:28:42.968Z,21.90
2018-04-23T09:31:11.472Z,21.80
2018-04-23T09:33:39.135Z,21.90
2018-04-23T09:36:07.689Z,22.10
2018-04-23T09:38:35.349Z,22.10
2018-04-23T09:41:03.118Z,22.20
2018-04-23T09:43:31.035Z,22.70
2018-04-23T09:45:58.669Z,23.00
2018-04-23T09:48:26.611Z,22.90
2018-04-23T09:50:54.277Z,22.50
2018-04-23T09:53:21.888Z,22.60
2018-04-23T09:55:49.598Z,22.00
2018-04-23T09:58:18.009Z,21.80
2018-04-23T10:00:46.413Z,21.80
2018-04-23T10:03:14.068Z,21.60
2018-04-23T10:05:41.888Z,21.50
2018-04-23T10:08:11.820Z,21.40
2018-04-23T10:10:39.485Z,21.10
2018-04-23T10:13:07.109Z,20.90
2018-04-23T10:15:34.771Z,20.60
2018-04-23T10:18:02.367Z,20.50
2018-04-23T10:20:30.804Z,20.60
2018-04-23T10:22:58.464Z,20.60
2018-04-23T10:25:26.104Z,20.50
2018-04-23T10:27:54.529Z,20.30
2018-04-23T10:30:23.108Z,20.30
2018-04-23T10:32:50.717Z,20.20
2018-04-23T10:35:18.900Z,20.20
2018-04-23T10:37:46.961Z,20.00
2018-04-23T10:40:14.632Z,19.80
2018-04-23T10:42:42.270Z,19.60
2018-04-23T10:45:09.955Z,19.60
2018-04-23T10:47:37.563Z,19.50
2018-04-23T10:50:06.181Z,19.40
2018-04-23T10:52:34.797Z,19.40
2018-04-23T10:55:02.536Z,19.60
2018-04-23T10:57:31.080Z,19.50
2018-04-23T10:59:58.772Z,19.60
2018-04-23T11:02:26.431Z,19.60
2018-04-23T11:04:55.747Z,19.70
2018-04-23T11:07:24.093Z,19.80
2018-04-23T11:09:51.779Z,19.70
2018-04-23T11:12:19.422Z,19.60
2018-04-23T11:14:47.084Z,19.80
2018-04-23T11:17:14.742Z,20.40
2018-04-23T11:19:42.402Z,20.40
2018-04-23T11:22:10.554Z,20.90
2018-04-23T11:24:39.780Z,21.20
2018-04-23T11:27:07.421Z,21.40
2018-04-23T11:29:35.155Z,22.20
2018-04-23T11:32:03.742Z,23.00
2018-04-23T11:34:32.416Z,23.10
2018-04-23T11:37:00.293Z,23.20
2018-04-23T11:39:27.976Z,23.00
2018-04-23T11:41:56.842Z,23.90
2018-04-23T11:44:24.501Z,23.90
2018-04-23T11:46:52.540Z,23.50
2018-04-23T11:49:20.159Z,23.90
2018-04-23T11:51:47.827Z,24.30
2018-04-23T11:54:15.507Z,24.40
2018-04-23T11:56:43.164Z,24.60
2018-04-23T11:59:11.678Z,24.80
2018-04-23T12:01:40.524Z,24.30
2018-04-23T12:04:08.182Z,23.30
2018-04-23T12:06:35.860Z,22.80
2018-04-23T12:09:03.524Z,22.70
2018-04-23T12:11:31.145Z,22.80
2018-04-23T12:13:59.753Z,24.20
2018-04-23T12:16:27.452Z,24.10
2018-04-23T12:18:56.265Z,24.10
2018-04-23T12:21:23.943Z,24.60
2018-04-23T12:23:53.265Z,25.10
2018-04-23T12:26:21.084Z,25.10
2018-04-23T12:28:48.716Z,24.10
2018-04-23T12:31:16.356Z,24.70
2018-04-23T12:33:44.014Z,24.10
2018-04-23T12:36:12.472Z,24.30
2018-04-23T12:38:40.132Z,24.30
2018-04-23T12:41:07.769Z,25.00
2018-04-23T12:43:35.441Z,24.70
2018-04-23T12:46:03.210Z,24.80
2018-04-23T12:48:31.444Z,24.40
2018-04-23T12:50:59.720Z,23.70
2018-04-23T12:53:27.765Z,23.80
2018-04-23T12:55:55.419Z,25.00
2018-04-23T12:58:23.053Z,25.70
2018-04-23T13:00:52.395Z,24.90
2018-04-23T13:03:20.081Z,24.90
2018-04-23T13:05:47.865Z,25.20
2018-04-23T13:08:17.262Z,25.30
2018-04-23T13:10:44.856Z,25.20
2018-04-23T13:13:12.925Z,24.80
2018-04-23T13:15:41.374Z,24.50
2018-04-23T13:18:09.075Z,24.50
2018-04-23T13:20:37.850Z,24.70
2018-04-23T13:23:06.296Z,24.60
2018-04-23T13:25:34.217Z,24.60
2018-04-23T13:28:01.910Z,24.40
2018-04-23T13:30:30.345Z,24.00
2018-04-23T13:32:59.076Z,24.00
2018-04-23T13:35:27.171Z,23.60
2018-04-23T13:37:55.576Z,19.60
2018-04-23T13:40:23.259Z,19.50
2018-04-23T13:42:50.949Z,19.40
2018-04-23T13:45:18.621Z,19.60
2018-04-23T13:47:47.040Z,20.00
2018-04-23T13:50:14.787Z,20.00
2018-04-23T13:52:44.150Z,20.50
2018-04-23T13:55:11.795Z,20.50
2018-04-23T13:57:39.456Z,20.80
2018-04-23T14:00:07.168Z,21.20
2018-04-23T14:02:34.799Z,21.30
2018-04-23T14:05:02.833Z,21.70
2018-04-23T14:07:32.007Z,22.40
2018-04-23T14:09:59.657Z,22.40
2018-04-23T14:12:28.116Z,22.10
2018-04-23T14:14:55.771Z,22.10
2018-04-23T14:17:23.636Z,22.40
2018-04-23T14:19:52.050Z,22.40
2018-04-23T14:22:19.712Z,22.40
2018-04-23T14:24:47.368Z,22.10
2018-04-23T14:27:15.038Z,22.00
2018-04-23T14:29:42.713Z,21.90
2018-04-23T14:32:10.373Z,21.60
2018-04-23T14:34:38.077Z,21.80
2018-04-23T14:37:07.007Z,21.60
2018-04-23T14:39:35.435Z,21.70
2018-04-23T14:42:03.110Z,21.70
2018-04-23T14:44:30.766Z,21.50
2018-04-23T14:46:58.408Z,21.40
2018-04-23T14:49:26.842Z,21.70
2018-04-23T14:51:55.327Z,21.40
2018-04-23T14:54:22.998Z,21.40
2018-04-23T14:56:50.645Z,21.20
2018-04-23T14:59:18.357Z,21.20
2018-04-23T15:01:46.344Z,21.00
2018-04-23T15:04:15.417Z,21.00
2018-04-23T15:06:43.490Z,21.10
2018-04-23T15:09:12.353Z,21.20
2018-04-23T15:11:39.991Z,21.40
2018-04-23T15:14:08.380Z,21.20
2018-04-23T15:16:36.015Z,21.20
2018-04-23T15:19:04.143Z,20.90
2018-04-23T15:21:31.825Z,20.90
2018-04-23T15:24:00.996Z,20.90
2018-04-23T15:26:28.938Z,20.80
2018-04-23T15:28:56.631Z,20.90
2018-04-23T15:31:24.316Z,20.90
2018-04-23T15:33:51.987Z,20.80
2018-04-23T15:36:19.623Z,20.70
2018-04-23T15:38:47.282Z,20.60
2018-04-23T15:41:15.937Z,20.50
2018-04-23T15:43:43.753Z,20.60
2018-04-23T15:46:13.017Z,20.60
2018-04-23T15:48:41.659Z,20.60
2018-04-23T15:51:09.312Z,20.60
2018-04-23T15:53:38.189Z,20.50
2018-04-23T15:56:06.645Z,20.40
2018-04-23T15:58:34.280Z,20.40
2018-04-23T16:01:02.037Z,20.20
2018-04-23T16:03:29.728Z,20.10
2018-04-23T16:05:57.383Z,20.00
2018-04-23T16:08:25.545Z,20.10
2018-04-23T16:10:54.453Z,20.20
2018-04-23T16:13:22.083Z,20.20
2018-04-23T16:15:50.974Z,20.20
2018-04-23T16:18:21.094Z,20.20
2018-04-23T16:20:49.549Z,20.10
2018-04-23T16:23:17.225Z,20.10
2018-04-23T16:25:45.841Z,20.10
2018-04-23T16:28:13.553Z,20.10
2018-04-23T16:30:41.236Z,20.10
2018-04-23T16:33:08.910Z,19.90
2018-04-23T16:35:36.784Z,19.80
2018-04-23T16:38:05.166Z,19.70
2018-04-23T16:40:32.873Z,19.70
2018-04-23T16:43:01.301Z,19.60
2018-04-23T16:45:28.992Z,19.60
2018-04-23T16:47:56.652Z,19.50
2018-04-23T16:50:24.305Z,19.40
2018-04-23T16:52:51.980Z,19.40
2018-04-23T16:55:19.635Z,19.30
2018-04-23T16:57:47.306Z,19.30
2018-04-23T17:00:14.915Z,19.20
2018-04-23T17:02:42.627Z,19.10
2018-04-23T17:05:10.239Z,19.00
2018-04-23T17:07:37.899Z,19.00
2018-04-23T17:10:05.565Z,18.90
2018-04-23T17:12:33.226Z,18.80
2018-04-23T17:15:00.916Z,18.60
2018-04-23T17:17:29.098Z,18.60
2018-04-23T17:19:57.983Z,18.40
2018-04-23T17:22:25.620Z,18.40
2018-04-23T17:24:54.297Z,18.30
2018-04-23T17:27:21.997Z,18.20
2018-04-23T17:29:49.597Z,18.20
2018-04-23T17:32:17.289Z,18.10
2018-04-23T17:34:44.970Z,18.00
2018-04-23T17:37:13.303Z,17.90
2018-04-23T17:39:41.033Z,17.90
2018-04-23T17:42:08.650Z,17.80
2018-04-23T17:44:36.342Z,17.80
2018-04-23T17:47:04.008Z,17.70
2018-04-23T17:49:31.684Z,17.60
2018-04-23T17:51:59.524Z,17.50
2018-04-23T17:54:28.485Z,17.30
2018-04-23T17:56:56.475Z,17.30
2018-04-23T17:59:24.179Z,17.20
2018-04-23T18:01:52.319Z,17.10
2018-04-23T18:04:20.942Z,17.10
2018-04-23T18:06:49.357Z,16.90
2018-04-23T18:09:17.267Z,16.90
2018-04-23T18:11:47.649Z,16.80
2018-04-23T18:14:15.294Z,16.70
2018-04-23T18:16:43.170Z,16.70
2018-04-23T18:19:11.652Z,16.60
2018-04-23T18:21:40.136Z,16.50
2018-04-23T18:24:08.037Z,16.50
2018-04-23T18:26:35.720Z,16.50
2018-04-23T18:29:03.361Z,16.40
2018-04-23T18:31:31.028Z,16.30
2018-04-23T18:33:58.716Z,16.20
2018-04-23T18:36:26.710Z,16.20
2018-04-23T18:38:54.354Z,16.10
2018-04-23T18:41:21.989Z,16.00
2018-04-23T18:43:49.771Z,15.90
2018-04-23T18:46:17.412Z,15.70
2018-04-23T18:48:45.048Z,15.70
2018-04-23T18:51:12.682Z,15.60
2018-04-23T18:53:40.357Z,15.60
2018-04-23T18:56:07.997Z,15.50
2018-04-23T18:58:35.665Z,15.50
2018-04-23T19:01:03.338Z,15.50
2018-04-23T19:03:31.823Z,15.30
2018-04-23T19:06:00.285Z,15.10
2018-04-23T19:08:27.886Z,15.10
2018-04-23T19:10:56.412Z,14.90
2018-04-23T19:13:24.470Z,14.90
2018-04-23T19:15:53.063Z,15.00
2018-04-23T19:18:20.733Z,14.80
2018-04-23T19:20:48.710Z,14.90
2018-04-23T19:23:16.489Z,14.90
2018-04-23T19:25:44.406Z,15.00
2018-04-23T19:28:12.851Z,14.70
2018-04-23T19:30:40.520Z,14.70
2018-04-23T19:33:08.876Z,14.60
2018-04-23T19:35:36.609Z,14.60
2018-04-23T19:38:05.056Z,14.50
2018-04-23T19:40:32.772Z,14.40
2018-04-23T19:43:01.483Z,14.40
2018-04-23T19:45:29.161Z,14.30
2018-04-23T19:47:56.783Z,14.20
2018-04-23T19:50:26.314Z,14.00
2018-04-23T19:52:54.770Z,13.80
2018-04-23T19:55:22.434Z,13.80
2018-04-23T19:57:51.527Z,13.60
2018-04-23T20:00:19.219Z,13.60
2018-04-23T20:02:47.665Z,13.40
2018-04-23T20:05:15.359Z,13.40
2018-04-23T20:07:43.014Z,13.40
2018-04-23T20:10:10.633Z,13.30
2018-04-23T20:12:38.311Z,13.20
2018-04-23T20:15:05.969Z,13.20
2018-04-23T20:17:33.671Z,13.20
2018-04-23T20:20:01.356Z,13.10
2018-04-23T20:22:29.029Z,13.10
2018-04-23T20:24:56.688Z,13.00
2018-04-23T20:27:24.391Z,13.00
2018-04-23T20:29:52.020Z,13.00
2018-04-23T20:32:19.634Z,13.00
2018-04-23T20:34:47.603Z,13.00
2018-04-23T20:37:15.334Z,12.90
2018-04-23T20:39:42.950Z,12.90
2018-04-23T20:42:10.737Z,12.90
2018-04-23T20:44:39.143Z,12.90
2018-04-23T20:47:06.801Z,13.00
2018-04-23T20:49:34.448Z,12.80
2018-04-23T20:52:02.128Z,12.80
2018-04-23T20:54:29.786Z,12.80
2018-04-23T20:56:57.468Z,12.80
2018-04-23T20:59:26.159Z,12.80
2018-04-23T21:01:56.030Z,12.80
2018-04-23T21:04:24.682Z,12.80
2018-04-23T21:06:52.320Z,12.70
2018-04-23T21:09:20.576Z,12.60
2018-04-23T21:11:48.264Z,12.50
2018-04-23T21:14:15.895Z,12.50
2018-04-23T21:16:44.315Z,12.50
2018-04-23T21:19:11.982Z,12.60
2018-04-23T21:21:39.631Z,12.50
2018-04-23T21:24:07.331Z,12.60
2018-04-23T21:26:35.802Z,12.70
2018-04-23T21:29:03.437Z,12.60
2018-04-23T21:31:31.436Z,12.60
2018-04-23T21:33:59.083Z,12.80
2018-04-23T21:36:27.485Z,12.90
2018-04-23T21:38:55.184Z,12.90
2018-04-23T21:41:22.847Z,12.70
2018-04-23T21:43:51.235Z,12.60
2018-04-23T21:46:19.243Z,12.60
2018-04-23T21:48:47.658Z,12.60
2018-04-23T21:51:15.290Z,12.60
2018-04-23T21:53:44.402Z,12.60
2018-04-23T21:56:12.063Z,12.40
2018-04-23T21:58:39.766Z,12.60
2018-04-23T22:01:07.399Z,12.60
2018-04-23T22:03:36.654Z,12.60
2018-04-23T22:06:04.557Z,12.60
2018-04-23T22:08:32.295Z,12.60
2018-04-23T22:10:59.985Z,12.50
2018-04-23T22:13:27.741Z,12.40
2018-04-23T22:15:55.388Z,12.40
2018-04-23T22:18:23.066Z,12.40
2018-04-23T22:20:50.681Z,12.50
2018-04-23T22:23:19.252Z,12.50
2018-04-23T22:25:48.860Z,12.40
2018-04-23T22:28:17.399Z,12.40
2018-04-23T22:30:45.058Z,12.30
2018-04-23T22:33:13.289Z,12.30
2018-04-23T22:35:40.950Z,12.30
2018-04-23T22:38:09.355Z,12.30
2018-04-23T22:40:36.993Z,12.30
2018-04-23T22:43:05.552Z,12.30
2018-04-23T22:45:33.182Z,12.40
2018-04-23T22:48:01.616Z,12.30
2018-04-23T22:50:29.261Z,12.30
2018-04-23T22:52:56.933Z,12.30
2018-04-23T22:55:25.160Z,12.20
2018-04-23T22:57:52.865Z,12.20
2018-04-23T23:00:20.532Z,12.10
2018-04-23T23:02:48.962Z,11.90
2018-04-23T23:05:17.080Z,11.90
2018-04-23T23:07:44.742Z,11.90
2018-04-23T23:10:13.150Z,11.70
2018-04-23T23:12:40.835Z,11.70
2018-04-23T23:15:08.731Z,11.50
2018-04-23T23:17:36.399Z,11.60
2018-04-23T23:20:04.123Z,11.50
2018-04-23T23:22:32.531Z,11.30
2018-04-23T23:25:00.163Z,11.20
2018-04-23T23:27:27.953Z,11.30
2018-04-23T23:29:55.534Z,11.20
2018-04-23T23:32:23.157Z,11.10
2018-04-23T23:34:51.566Z,10.90
2018-04-23T23:37:19.932Z,10.80
2018-04-23T23:39:49.048Z,10.80
2018-04-23T23:42:16.688Z,10.80
2018-04-23T23:44:45.125Z,10.80
2018-04-23T23:47:12.784Z,10.80
2018-04-23T23:49:40.440Z,10.80
2018-04-23T23:52:08.080Z,10.70
2018-04-23T23:54:36.480Z,10.70
2018-04-23T23:57:04.128Z,10.70
2018-04-23T23:59:32.611Z,10.60
